sensor_id;sensor_type;location;lat;lon;timestamp;pressure;altitude;pressure_sealevel;temperature;humidity
61573;BME280;47465;43.094;12.434;2024-03-23T00:54:34;98809.44;;;10.45;100.00
61573;BME280;47465;43.094;12.434;2024-03-23T00:57:00;98824.28;;;10.54;100.00
61573;BME280;47465;43.094;12.434;2024-03-23T00:59:26;98822.19;;;10.65;100.00
61573;BME280;47465;43.094;12.434;2024-03-23T01:01:54;98818.44;;;10.73;100.00
61573;BME280;47465;43.094;12.434;2024-03-23T01:04:21;98766.63;;;10.55;100.00
61573;BME280;47465;43.094;12.434;2024-03-23T01:06:47;98825.25;;;10.84;100.00
61573;BME280;47465;43.094;12.434;2024-03-23T01:09:13;98814.66;;;10.81;100.00
61573;BME280;47465;43.094;12.434;2024-03-23T01:11:39;98809.06;;;10.59;100.00
61573;BME280;47465;43.094;12.434;2024-03-23T01:14:05;98748.69;;;10.28;100.00
61573;BME280;47465;43.094;12.434;2024-03-23T01:16:32;98670.75;;;9.59;100.00
61573;BME280;47465;43.094;12.434;2024-03-23T01:18:58;98810.41;;;10.41;100.00
61573;BME280;47465;43.094;12.434;2024-03-23T01:21:25;98803.19;;;10.46;100.00
61573;BME280;47465;43.094;12.434;2024-03-23T01:23:51;98700.78;;;9.97;100.00
61573;BME280;47465;43.094;12.434;2024-03-23T01:26:19;98795.66;;;10.62;100.00
61573;BME280;47465;43.094;12.434;2024-03-23T01:28:45;98665.75;;;9.83;100.00
61573;BME280;47465;43.094;12.434;2024-03-23T01:31:11;98724.91;;;10.24;100.00
61573;BME280;47465;43.094;12.434;2024-03-23T01:33:37;98715.13;;;10.24;100.00
61573;BME280;47465;43.094;12.434;2024-03-23T01:36:03;98659.22;;;9.95;100.00
61573;BME280;47465;43.094;12.434;2024-03-23T01:38:31;98799.81;;;10.73;100.00
61573;BME280;47465;43.094;12.434;2024-03-23T01:40:57;98639.25;;;9.80;100.00
61573;BME280;47465;43.094;12.434;2024-03-23T01:43:23;98729.28;;;10.25;100.00
61573;BME280;47465;43.094;12.434;2024-03-23T01:45:50;98645.47;;;9.79;100.00
61573;BME280;47465;43.094;12.434;2024-03-23T01:48:16;98793.06;;;10.61;100.00
61573;BME280;47465;43.094;12.434;2024-03-23T01:50:42;98658.88;;;9.74;100.00
61573;BME280;47465;43.094;12.434;2024-03-23T01:53:08;98794.78;;;10.62;100.00
61573;BME280;47465;43.094;12.434;2024-03-23T01:55:36;98742.50;;;10.28;100.00
61573;BME280;47465;43.094;12.434;2024-03-23T01:58:02;98788.78;;;10.55;100.00
61573;BME280;47465;43.094;12.434;2024-03-23T02:00:28;98792.53;;;10.46;100.00
61573;BME280;47465;43.094;12.434;2024-03-23T02:02:54;98800.47;;;10.50;100.00
61573;BME280;47465;43.094;12.434;2024-03-23T02:05:22;98629.16;;;9.58;100.00
61573;BME280;47465;43.094;12.434;2024-03-23T02:07:48;98790.19;;;10.34;100.00
61573;BME280;47465;43.094;12.434;2024-03-23T02:10:14;98640.97;;;9.46;100.00
61573;BME280;47465;43.094;12.434;2024-03-23T02:12:42;98702.00;;;9.84;100.00
61573;BME280;47465;43.094;12.434;2024-03-23T02:15:08;98792.78;;;10.39;100.00
61573;BME280;47465;43.094;12.434;2024-03-23T02:17:35;98638.31;;;9.48;100.00
61573;BME280;47465;43.094;12.434;2024-03-23T02:20:01;98639.06;;;9.52;100.00
61573;BME280;47465;43.094;12.434;2024-03-23T02:22:35;98782.13;;;10.39;100.00
61573;BME280;47465;43.094;12.434;2024-03-23T02:25:03;98776.06;;;10.32;100.00
61573;BME280;47465;43.094;12.434;2024-03-23T02:27:29;98640.72;;;9.57;100.00
61573;BME280;47465;43.094;12.434;2024-03-23T02:29:55;98771.66;;;10.33;100.00
61573;BME280;47465;43.094;12.434;2024-03-23T02:32:21;98678.38;;;9.73;100.00
61573;BME280;47465;43.094;12.434;2024-03-23T02:34:47;98723.63;;;10.04;100.00
61573;BME280;47465;43.094;12.434;2024-03-23T02:37:13;98735.13;;;10.05;100.00
61573;BME280;47465;43.094;12.434;2024-03-23T02:39:39;98720.00;;;10.07;100.00
61573;BME280;47465;43.094;12.434;2024-03-23T02:42:07;98669.69;;;9.66;100.00
61573;BME280;47465;43.094;12.434;2024-03-23T02:44:33;98647.81;;;9.57;100.00
61573;BME280;47465;43.094;12.434;2024-03-23T02:46:59;98759.78;;;10.10;100.00
61573;BME280;47465;43.094;12.434;2024-03-23T02:49:25;98616.38;;;9.40;100.00
61573;BME280;47465;43.094;12.434;2024-03-23T02:51:51;98727.25;;;10.02;100.00
61573;BME280;47465;43.094;12.434;2024-03-23T02:54:17;98759.63;;;10.16;100.00
61573;BME280;47465;43.094;12.434;2024-03-23T02:56:43;98673.16;;;9.69;100.00
61573;BME280;47465;43.094;12.434;2024-03-23T02:59:11;98767.09;;;10.02;100.00
61573;BME280;47465;43.094;12.434;2024-03-23T03:01:37;98720.78;;;9.76;100.00
61573;BME280;47465;43.094;12.434;2024-03-23T03:04:03;98615.97;;;9.19;100.00
61573;BME280;47465;43.094;12.434;2024-03-23T03:06:31;98754.06;;;9.91;100.00
61573;BME280;47465;43.094;12.434;2024-03-23T03:08:57;98720.28;;;9.60;100.00
61573;BME280;47465;43.094;12.434;2024-03-23T03:11:23;98608.22;;;9.12;100.00
61573;BME280;47465;43.094;12.434;2024-03-23T03:13:49;98598.84;;;8.97;100.00
61573;BME280;47465;43.094;12.434;2024-03-23T03:16:16;98605.94;;;8.95;100.00
61573;BME280;47465;43.094;12.434;2024-03-23T03:18:42;98676.81;;;9.29;100.00
61573;BME280;47465;43.094;12.434;2024-03-23T03:21:09;98659.38;;;9.17;100.00
61573;BME280;47465;43.094;12.434;2024-03-23T03:23:36;98768.47;;;9.81;100.00
61573;BME280;47465;43.094;12.434;2024-03-23T03:26:03;98757.84;;;9.81;100.00
61573;BME280;47465;43.094;12.434;2024-03-23T03:28:29;98647.75;;;9.22;100.00
61573;BME280;47465;43.094;12.434;2024-03-23T03:30:56;98617.28;;;9.01;100.00
61573;BME280;47465;43.094;12.434;2024-03-23T03:33:24;98757.97;;;9.76;100.00
61573;BME280;47465;43.094;12.434;2024-03-23T03:35:50;98751.81;;;9.74;100.00
61573;BME280;47465;43.094;12.434;2024-03-23T03:38:18;98758.88;;;9.75;100.00
61573;BME280;47465;43.094;12.434;2024-03-23T03:40:45;98634.41;;;8.87;100.00
61573;BME280;47465;43.094;12.434;2024-03-23T03:43:11;98703.16;;;9.36;100.00
61573;BME280;47465;43.094;12.434;2024-03-23T03:45:37;98765.22;;;9.70;100.00
61573;BME280;47465;43.094;12.434;2024-03-23T03:48:04;98604.53;;;8.80;100.00
61573;BME280;47465;43.094;12.434;2024-03-23T03:50:32;98757.28;;;9.68;100.00
61573;BME280;47465;43.094;12.434;2024-03-23T03:52:58;98755.47;;;9.70;100.00
61573;BME280;47465;43.094;12.434;2024-03-23T03:55:24;98748.63;;;9.58;100.00
61573;BME280;47465;43.094;12.434;2024-03-23T03:57:50;98741.50;;;9.60;100.00
61573;BME280;47465;43.094;12.434;2024-03-23T04:00:16;98691.53;;;9.42;100.00
61573;BME280;47465;43.094;12.434;2024-03-23T04:02:42;98666.44;;;9.18;100.00
61573;BME280;47465;43.094;12.434;2024-03-23T04:05:10;98614.97;;;8.88;100.00
61573;BME280;47465;43.094;12.434;2024-03-23T04:07:38;98606.22;;;8.82;100.00
61573;BME280;47465;43.094;12.434;2024-03-23T04:10:05;98602.94;;;8.71;100.00
61573;BME280;47465;43.094;12.434;2024-03-23T04:12:33;98589.06;;;8.60;100.00
61573;BME280;47465;43.094;12.434;2024-03-23T04:15:03;98704.44;;;9.20;100.00
61573;BME280;47465;43.094;12.434;2024-03-23T04:17:31;98743.53;;;9.51;100.00
61573;BME280;47465;43.094;12.434;2024-03-23T04:20:02;98752.59;;;9.40;100.00
61573;BME280;47465;43.094;12.434;2024-03-23T04:22:29;98609.44;;;8.58;100.00
61573;BME280;47465;43.094;12.434;2024-03-23T04:24:57;98619.94;;;8.62;100.00
61573;BME280;47465;43.094;12.434;2024-03-23T04:27:23;98624.56;;;8.53;100.00
61573;BME280;47465;43.094;12.434;2024-03-23T04:29:49;98589.47;;;8.41;100.00
61573;BME280;47465;43.094;12.434;2024-03-23T04:32:15;98627.09;;;8.59;100.00
61573;BME280;47465;43.094;12.434;2024-03-23T04:34:43;98583.34;;;8.36;100.00
61573;BME280;47465;43.094;12.434;2024-03-23T04:37:09;98743.00;;;9.35;100.00
61573;BME280;47465;43.094;12.434;2024-03-23T04:39:36;98744.81;;;9.33;100.00
61573;BME280;47465;43.094;12.434;2024-03-23T04:42:04;98741.13;;;9.40;100.00
61573;BME280;47465;43.094;12.434;2024-03-23T04:44:30;98739.66;;;9.27;100.00
61573;BME280;47465;43.094;12.434;2024-03-23T04:46:56;98715.16;;;9.15;100.00
61573;BME280;47465;43.094;12.434;2024-03-23T04:49:22;98707.56;;;8.97;100.00
61573;BME280;47465;43.094;12.434;2024-03-23T04:51:48;98619.38;;;8.48;100.00
61573;BME280;47465;43.094;12.434;2024-03-23T04:54:14;98661.25;;;8.73;100.00
61573;BME280;47465;43.094;12.434;2024-03-23T04:56:40;98745.75;;;9.30;100.00
61573;BME280;47465;43.094;12.434;2024-03-23T04:59:09;98745.69;;;9.33;100.00
61573;BME280;47465;43.094;12.434;2024-03-23T05:01:35;98741.13;;;9.38;100.00
61573;BME280;47465;43.094;12.434;2024-03-23T05:04:04;98658.34;;;8.85;100.00
61573;BME280;47465;43.094;12.434;2024-03-23T05:06:30;98735.84;;;9.38;100.00
61573;BME280;47465;43.094;12.434;2024-03-23T05:08:56;98620.03;;;8.58;100.00
61573;BME280;47465;43.094;12.434;2024-03-23T05:11:22;98706.59;;;9.01;100.00
61573;BME280;47465;43.094;12.434;2024-03-23T05:13:48;98701.31;;;8.99;100.00
61573;BME280;47465;43.094;12.434;2024-03-23T05:16:16;98759.81;;;9.35;100.00
61573;BME280;47465;43.094;12.434;2024-03-23T05:18:42;98751.03;;;9.30;100.00
61573;BME280;47465;43.094;12.434;2024-03-23T05:21:08;98726.00;;;9.03;100.00
61573;BME280;47465;43.094;12.434;2024-03-23T05:23:34;98758.25;;;9.25;100.00
61573;BME280;47465;43.094;12.434;2024-03-23T05:26:01;98753.78;;;9.27;100.00
61573;BME280;47465;43.094;12.434;2024-03-23T05:28:27;98601.81;;;8.42;100.00
61573;BME280;47465;43.094;12.434;2024-03-23T05:30:53;98757.25;;;9.31;100.00
61573;BME280;47465;43.094;12.434;2024-03-23T05:33:21;98625.41;;;8.55;100.00
61573;BME280;47465;43.094;12.434;2024-03-23T05:35:55;98622.00;;;8.48;100.00
61573;BME280;47465;43.094;12.434;2024-03-23T05:38:21;98764.25;;;9.33;100.00
61573;BME280;47465;43.094;12.434;2024-03-23T05:40:53;98593.75;;;8.47;100.00
61573;BME280;47465;43.094;12.434;2024-03-23T05:43:19;98766.53;;;9.50;100.00
61573;BME280;47465;43.094;12.434;2024-03-23T05:45:45;98762.94;;;9.53;100.00
61573;BME280;47465;43.094;12.434;2024-03-23T05:48:11;98759.25;;;9.58;100.00
61573;BME280;47465;43.094;12.434;2024-03-23T05:50:38;98638.00;;;8.84;100.00
61573;BME280;47465;43.094;12.434;2024-03-23T05:53:04;98768.91;;;9.62;100.00
61573;BME280;47465;43.094;12.434;2024-03-23T05:55:31;98781.06;;;9.73;100.00
61573;BME280;47465;43.094;12.434;2024-03-23T05:57:57;98602.69;;;8.83;100.00
61573;BME280;47465;43.094;12.434;2024-03-23T06:00:25;98715.94;;;9.56;100.00
61573;BME280;47465;43.094;12.434;2024-03-23T06:02:52;98626.91;;;9.05;100.00
61573;BME280;47465;43.094;12.434;2024-03-23T06:05:18;98764.75;;;9.88;100.00
61573;BME280;47465;43.094;12.434;2024-03-23T06:07:51;98659.97;;;9.30;100.00
61573;BME280;47465;43.094;12.434;2024-03-23T06:10:17;98646.47;;;9.39;100.00
61573;BME280;47465;43.094;12.434;2024-03-23T06:12:45;98624.56;;;9.31;100.00
61573;BME280;47465;43.094;12.434;2024-03-23T06:15:12;98768.38;;;10.21;100.00
61573;BME280;47465;43.094;12.434;2024-03-23T06:17:38;98774.50;;;10.23;100.00
61573;BME280;47465;43.094;12.434;2024-03-23T06:20:05;98764.75;;;10.24;100.00
61573;BME280;47465;43.094;12.434;2024-03-23T06:22:36;98727.97;;;10.07;100.00
61573;BME280;47465;43.094;12.434;2024-03-23T06:25:08;98737.47;;;10.17;100.00
61573;BME280;47465;43.094;12.434;2024-03-23T06:30:29;98670.91;;;9.89;100.00
61573;BME280;47465;43.094;12.434;2024-03-23T08:05:58;98584.94;;;13.74;100.00
61573;BME280;47465;43.094;12.434;2024-03-23T08:08:32;98591.34;;;13.50;100.00
61573;BME280;47465;43.094;12.434;2024-03-23T09:21:54;98528.34;;;17.05;100.00
61573;BME280;47465;43.094;12.434;2024-03-23T09:24:45;98627.03;;;17.49;100.00
61573;BME280;47465;43.094;12.434;2024-03-23T09:27:18;98602.00;;;17.17;100.00
61573;BME280;47465;43.094;12.434;2024-03-23T09:30:34;98621.81;;;17.62;100.00
61573;BME280;47465;43.094;12.434;2024-03-23T09:33:00;98609.59;;;17.56;100.00
61573;BME280;47465;43.094;12.434;2024-03-23T09:55:22;98572.72;;;18.04;100.00
61573;BME280;47465;43.094;12.434;2024-03-23T09:57:52;98464.16;;;17.61;100.00
61573;BME280;47465;43.094;12.434;2024-03-23T10:00:32;98571.00;;;18.18;100.00
61573;BME280;47465;43.094;12.434;2024-03-23T10:07:22;98450.38;;;18.24;100.00
61573;BME280;47465;43.094;12.434;2024-03-23T10:10:12;98544.94;;;18.90;100.00
61573;BME280;47465;43.094;12.434;2024-03-23T10:12:50;98505.34;;;18.49;100.00
61573;BME280;47465;43.094;12.434;2024-03-23T10:15:20;98531.69;;;18.87;100.00
61573;BME280;47465;43.094;12.434;2024-03-23T10:17:46;98433.25;;;18.40;100.00
61573;BME280;47465;43.094;12.434;2024-03-23T10:20:13;98479.34;;;18.91;100.00
61573;BME280;47465;43.094;12.434;2024-03-23T10:22:39;98518.13;;;19.16;100.00
61573;BME280;47465;43.094;12.434;2024-03-23T10:38:37;98500.22;;;20.20;71.82
61573;BME280;47465;43.094;12.434;2024-03-23T10:58:36;98354.69;;;19.40;58.97
61573;BME280;47465;43.094;12.434;2024-03-23T11:13:30;98338.31;;;19.43;55.92
61573;BME280;47465;43.094;12.434;2024-03-23T11:25:38;98432.44;;;19.34;59.12
61573;BME280;47465;43.094;12.434;2024-03-23T11:28:17;98360.44;;;18.83;59.93
61573;BME280;47465;43.094;12.434;2024-03-23T11:30:47;98449.72;;;19.31;60.22
61573;BME280;47465;43.094;12.434;2024-03-23T11:33:13;98305.69;;;18.55;60.70
61573;BME280;47465;43.094;12.434;2024-03-23T11:35:40;98439.34;;;19.25;62.71
61573;BME280;47465;43.094;12.434;2024-03-23T11:38:07;98444.31;;;19.31;63.10
61573;BME280;47465;43.094;12.434;2024-03-23T11:40:35;98440.47;;;19.08;63.49
61573;BME280;47465;43.094;12.434;2024-03-23T11:45:55;98439.34;;;19.25;63.14
61573;BME280;47465;43.094;12.434;2024-03-23T11:48:26;98423.44;;;19.07;62.55
61573;BME280;47465;43.094;12.434;2024-03-23T11:50:56;98413.88;;;19.16;63.13
61573;BME280;47465;43.094;12.434;2024-03-23T11:53:32;98424.09;;;19.11;64.62
61573;BME280;47465;43.094;12.434;2024-03-23T11:55:59;98414.41;;;19.08;63.83
61573;BME280;47465;43.094;12.434;2024-03-23T12:04:44;98400.50;;;19.80;62.02
61573;BME280;47465;43.094;12.434;2024-03-23T12:13:41;98287.19;;;18.63;58.71
61573;BME280;47465;43.094;12.434;2024-03-23T12:19:56;98400.06;;;19.86;58.40
61573;BME280;47465;43.094;12.434;2024-03-23T12:22:28;98404.78;;;20.08;57.20
61573;BME280;47465;43.094;12.434;2024-03-23T12:25:00;98386.31;;;20.02;56.17
61573;BME280;47465;43.094;12.434;2024-03-23T12:27:26;98390.84;;;19.63;57.79
61573;BME280;47465;43.094;12.434;2024-03-23T12:32:47;98400.88;;;19.48;59.15
61573;BME280;47465;43.094;12.434;2024-03-23T12:35:53;98276.78;;;18.72;59.13
61573;BME280;47465;43.094;12.434;2024-03-23T12:38:32;98272.94;;;18.88;58.47
61573;BME280;47465;43.094;12.434;2024-03-23T12:41:11;98256.88;;;18.87;58.17
61573;BME280;47465;43.094;12.434;2024-03-23T12:43:42;98245.53;;;18.82;57.27
61573;BME280;47465;43.094;12.434;2024-03-23T12:46:11;98308.53;;;19.45;57.87
61573;BME280;47465;43.094;12.434;2024-03-23T12:49:13;98301.09;;;19.36;57.48
61573;BME280;47465;43.094;12.434;2024-03-23T12:52:07;98258.53;;;19.28;55.47
61573;BME280;47465;43.094;12.434;2024-03-23T12:54:34;98253.09;;;19.41;57.39
61573;BME280;47465;43.094;12.434;2024-03-23T12:57:01;98352.72;;;20.19;57.98
61573;BME280;47465;43.094;12.434;2024-03-23T12:59:29;98222.81;;;19.12;57.68
61573;BME280;47465;43.094;12.434;2024-03-23T13:12:11;98234.69;;;19.09;57.06
61573;BME280;47465;43.094;12.434;2024-03-23T13:14:39;98358.56;;;20.13;56.61
61573;BME280;47465;43.094;12.434;2024-03-23T13:20:44;98352.69;;;20.32;56.34
61573;BME280;47465;43.094;12.434;2024-03-23T13:23:16;98217.53;;;19.23;54.56
61573;BME280;47465;43.094;12.434;2024-03-23T13:25:52;98346.50;;;19.55;54.52
61573;BME280;47465;43.094;12.434;2024-03-23T13:28:20;98261.72;;;18.95;54.88
61573;BME280;47465;43.094;12.434;2024-03-23T13:30:51;98346.72;;;19.64;54.98
61573;BME280;47465;43.094;12.434;2024-03-23T13:33:17;98360.31;;;19.50;53.41
61573;BME280;47465;43.094;12.434;2024-03-23T13:35:49;98234.38;;;19.01;53.54
61573;BME280;47465;43.094;12.434;2024-03-23T13:38:38;98353.97;;;19.77;53.13
61573;BME280;47465;43.094;12.434;2024-03-23T13:41:05;98229.66;;;18.64;54.33
61573;BME280;47465;43.094;12.434;2024-03-23T13:43:44;98295.13;;;18.52;55.49
61573;BME280;47465;43.094;12.434;2024-03-23T13:46:11;98244.16;;;18.49;56.23
61573;BME280;47465;43.094;12.434;2024-03-23T13:48:42;98230.06;;;18.58;55.68
61573;BME280;47465;43.094;12.434;2024-03-23T13:51:23;98224.28;;;18.64;56.21
61573;BME280;47465;43.094;12.434;2024-03-23T13:53:53;98338.41;;;19.42;57.21
61573;BME280;47465;43.094;12.434;2024-03-23T13:56:34;98332.03;;;19.56;57.51
61573;BME280;47465;43.094;12.434;2024-03-23T14:02:38;98324.94;;;19.67;57.63
61573;BME280;47465;43.094;12.434;2024-03-23T14:05:04;98246.63;;;19.56;55.93
61573;BME280;47465;43.094;12.434;2024-03-23T14:07:33;98324.78;;;19.95;57.04
61573;BME280;47465;43.094;12.434;2024-03-23T14:12:43;98323.53;;;19.62;56.22
61573;BME280;47465;43.094;12.434;2024-03-23T14:19:34;98220.22;;;18.72;57.39
61573;BME280;47465;43.094;12.434;2024-03-23T14:24:35;98203.41;;;18.28;58.42
61573;BME280;47465;43.094;12.434;2024-03-23T14:27:07;98335.59;;;19.18;58.17
61573;BME280;47465;43.094;12.434;2024-03-23T14:29:36;98220.63;;;18.25;58.59
61573;BME280;47465;43.094;12.434;2024-03-23T14:32:04;98342.44;;;18.83;59.33
61573;BME280;47465;43.094;12.434;2024-03-23T14:34:35;98340.00;;;19.06;59.64
61573;BME280;47465;43.094;12.434;2024-03-23T14:37:02;98255.72;;;18.64;59.17
61573;BME280;47465;43.094;12.434;2024-03-23T14:39:54;98333.97;;;19.02;59.58
61573;BME280;47465;43.094;12.434;2024-03-23T14:42:26;98327.50;;;19.05;58.68
61573;BME280;47465;43.094;12.434;2024-03-23T14:44:57;98218.47;;;18.18;59.43
61573;BME280;47465;43.094;12.434;2024-03-23T14:47:24;98314.81;;;18.80;59.24
61573;BME280;47465;43.094;12.434;2024-03-23T14:53:02;98315.28;;;18.59;60.75
61573;BME280;47465;43.094;12.434;2024-03-23T14:55:35;98323.28;;;18.34;60.79
61573;BME280;47465;43.094;12.434;2024-03-23T14:58:01;98331.63;;;18.56;60.70
61573;BME280;47465;43.094;12.434;2024-03-23T15:00:30;98199.84;;;17.88;58.86
61573;BME280;47465;43.094;12.434;2024-03-23T15:02:57;98336.56;;;18.77;58.93
61573;BME280;47465;43.094;12.434;2024-03-23T15:05:23;98332.63;;;18.82;59.59
61573;BME280;47465;43.094;12.434;2024-03-23T15:07:52;98207.66;;;18.05;59.90
61573;BME280;47465;43.094;12.434;2024-03-23T15:10:20;98342.75;;;18.79;59.19
61573;BME280;47465;43.094;12.434;2024-03-23T15:12:46;98352.03;;;18.87;57.87
61573;BME280;47465;43.094;12.434;2024-03-23T15:15:13;98312.69;;;18.58;57.30
61573;BME280;47465;43.094;12.434;2024-03-23T15:17:41;98321.94;;;18.54;57.80
61573;BME280;47465;43.094;12.434;2024-03-23T15:20:10;98246.63;;;17.56;59.12
61573;BME280;47465;43.094;12.434;2024-03-23T15:22:38;98231.31;;;17.30;60.79
61573;BME280;47465;43.094;12.434;2024-03-23T15:25:04;98367.75;;;17.98;60.87
61573;BME280;47465;43.094;12.434;2024-03-23T15:27:38;98371.47;;;17.81;61.44
61573;BME280;47465;43.094;12.434;2024-03-23T15:30:09;98362.56;;;17.66;62.21
61573;BME280;47465;43.094;12.434;2024-03-23T15:32:40;98362.75;;;17.04;62.96
61573;BME280;47465;43.094;12.434;2024-03-23T15:35:07;98370.72;;;17.06;63.71
61573;BME280;47465;43.094;12.434;2024-03-23T15:37:38;98200.13;;;16.09;63.29
61573;BME280;47465;43.094;12.434;2024-03-23T15:40:07;98224.50;;;16.20;64.07
61573;BME280;47465;43.094;12.434;2024-03-23T15:42:44;98364.84;;;16.99;65.05
61573;BME280;47465;43.094;12.434;2024-03-23T15:45:10;98303.28;;;16.50;66.02
61573;BME280;47465;43.094;12.434;2024-03-23T15:47:38;98283.84;;;16.14;66.75
61573;BME280;47465;43.094;12.434;2024-03-23T15:50:05;98353.00;;;16.71;67.53
61573;BME280;47465;43.094;12.434;2024-03-23T15:52:37;98284.28;;;16.22;67.17
61573;BME280;47465;43.094;12.434;2024-03-23T15:55:03;98253.47;;;16.30;66.90
61573;BME280;47465;43.094;12.434;2024-03-23T15:57:37;98344.56;;;16.93;66.45
61573;BME280;47465;43.094;12.434;2024-03-23T16:00:19;98251.00;;;16.41;66.61
61573;BME280;47465;43.094;12.434;2024-03-23T16:02:51;98352.09;;;17.02;66.52
61573;BME280;47465;43.094;12.434;2024-03-23T16:05:26;98210.50;;;15.99;67.55
61573;BME280;47465;43.094;12.434;2024-03-23T16:07:54;98349.72;;;16.82;69.03
61573;BME280;47465;43.094;12.434;2024-03-23T16:10:20;98208.94;;;15.95;69.22
61573;BME280;47465;43.094;12.434;2024-03-23T16:12:46;98349.75;;;16.50;70.00
61573;BME280;47465;43.094;12.434;2024-03-23T16:15:13;98337.53;;;16.60;70.47
61573;BME280;47465;43.094;12.434;2024-03-23T16:17:40;98318.59;;;16.48;70.64
61573;BME280;47465;43.094;12.434;2024-03-23T16:20:07;98320.69;;;16.42;70.79
61573;BME280;47465;43.094;12.434;2024-03-23T16:22:34;98224.72;;;15.86;70.98
61573;BME280;47465;43.094;12.434;2024-03-23T16:25:00;98326.59;;;16.33;71.98
61573;BME280;47465;43.094;12.434;2024-03-23T16:27:26;98332.97;;;16.31;72.42
61573;BME280;47465;43.094;12.434;2024-03-23T16:29:54;98206.59;;;15.41;73.63
61573;BME280;47465;43.094;12.434;2024-03-23T16:32:21;98332.34;;;16.11;73.92
61573;BME280;47465;43.094;12.434;2024-03-23T16:34:49;98343.28;;;16.07;74.33
61573;BME280;47465;43.094;12.434;2024-03-23T16:37:15;98362.97;;;16.07;74.53
61573;BME280;47465;43.094;12.434;2024-03-23T16:39:41;98348.75;;;16.05;74.59
61573;BME280;47465;43.094;12.434;2024-03-23T16:42:07;98349.00;;;15.85;76.25
61573;BME280;47465;43.094;12.434;2024-03-23T16:44:33;98217.38;;;15.08;76.27
61573;BME280;47465;43.094;12.434;2024-03-23T16:46:59;98336.88;;;15.77;76.65
61573;BME280;47465;43.094;12.434;2024-03-23T16:49:27;98332.78;;;15.70;78.38
61573;BME280;47465;43.094;12.434;2024-03-23T16:51:53;98249.06;;;15.33;77.43
61573;BME280;47465;43.094;12.434;2024-03-23T16:54:19;98318.81;;;15.97;76.88
61573;BME280;47465;43.094;12.434;2024-03-23T16:56:45;98332.34;;;15.62;78.12
61573;BME280;47465;43.094;12.434;2024-03-23T16:59:11;98308.00;;;15.82;78.01
61573;BME280;47465;43.094;12.434;2024-03-23T17:01:37;98186.00;;;15.10;76.75
61573;BME280;47465;43.094;12.434;2024-03-23T17:04:03;98303.75;;;15.78;77.24
61573;BME280;47465;43.094;12.434;2024-03-23T17:06:31;98297.28;;;15.82;77.55
61573;BME280;47465;43.094;12.434;2024-03-23T17:08:57;98297.38;;;15.81;76.95
61573;BME280;47465;43.094;12.434;2024-03-23T17:11:24;98231.75;;;15.23;77.51
61573;BME280;47465;43.094;12.434;2024-03-23T17:13:50;98231.91;;;15.20;77.66
61573;BME280;47465;43.094;12.434;2024-03-23T17:16:19;98315.28;;;15.63;78.16
61573;BME280;47465;43.094;12.434;2024-03-23T17:18:46;98181.69;;;14.74;77.54
61573;BME280;47465;43.094;12.434;2024-03-23T17:21:17;98180.94;;;14.55;79.08
61573;BME280;47465;43.094;12.434;2024-03-23T17:23:47;98251.38;;;14.90;79.31
61573;BME280;47465;43.094;12.434;2024-03-23T17:26:13;98325.72;;;15.36;79.15
61573;BME280;47465;43.094;12.434;2024-03-23T17:28:47;98269.94;;;14.76;79.88
61573;BME280;47465;43.094;12.434;2024-03-23T17:31:28;98333.00;;;14.99;80.14
61573;BME280;47465;43.094;12.434;2024-03-23T17:34:10;98337.25;;;15.03;77.80
61573;BME280;47465;43.094;12.434;2024-03-23T17:36:49;98215.06;;;14.15;77.41
61573;BME280;47465;43.094;12.434;2024-03-23T17:41:52;98222.00;;;14.19;78.46
61573;BME280;47465;43.094;12.434;2024-03-23T17:44:43;98310.94;;;14.59;78.97
61573;BME280;47465;43.094;12.434;2024-03-23T17:47:25;98299.00;;;14.30;80.16
61573;BME280;47465;43.094;12.434;2024-03-23T17:50:10;98231.13;;;13.79;80.62
61573;BME280;47465;43.094;12.434;2024-03-23T17:52:44;98231.97;;;13.79;80.96
61573;BME280;47465;43.094;12.434;2024-03-23T17:55:34;98235.03;;;13.71;82.04
61573;BME280;47465;43.094;12.434;2024-03-23T18:01:26;98218.31;;;13.49;84.94
61573;BME280;47465;43.094;12.434;2024-03-23T18:03:57;98361.81;;;14.40;84.93
61573;BME280;47465;43.094;12.434;2024-03-23T18:06:30;98224.28;;;13.54;85.27
61573;BME280;47465;43.094;12.434;2024-03-23T18:08:59;98235.84;;;13.54;86.25
61573;BME280;47465;43.094;12.434;2024-03-23T18:11:26;98220.09;;;13.48;85.80
61573;BME280;47465;43.094;12.434;2024-03-23T18:13:55;98208.00;;;13.41;85.44
61573;BME280;47465;43.094;12.434;2024-03-23T18:16:41;98366.34;;;14.21;85.66
61573;BME280;47465;43.094;12.434;2024-03-23T18:19:29;98205.94;;;13.27;84.97
61573;BME280;47465;43.094;12.434;2024-03-23T18:22:04;98200.72;;;13.24;85.45
61573;BME280;47465;43.094;12.434;2024-03-23T18:24:40;98361.91;;;14.20;85.34
61573;BME280;47465;43.094;12.434;2024-03-23T18:27:06;98320.84;;;13.84;85.65
61573;BME280;47465;43.094;12.434;2024-03-23T18:29:35;98359.81;;;14.07;86.58
61573;BME280;47465;43.094;12.434;2024-03-23T18:32:17;98200.81;;;13.04;86.83
61573;BME280;47465;43.094;12.434;2024-03-23T18:34:48;98330.44;;;13.88;86.72
61573;BME280;47465;43.094;12.434;2024-03-23T18:37:37;98242.53;;;13.25;86.89
61573;BME280;47465;43.094;12.434;2024-03-23T18:40:06;98208.81;;;13.04;87.52
61573;BME280;47465;43.094;12.434;2024-03-23T18:42:40;98366.47;;;13.98;87.94
61573;BME280;47465;43.094;12.434;2024-03-23T18:45:07;98227.94;;;13.13;88.53
61573;BME280;47465;43.094;12.434;2024-03-23T18:47:36;98370.44;;;13.90;89.64
61573;BME280;47465;43.094;12.434;2024-03-23T18:50:12;98224.69;;;13.07;90.85
61573;BME280;47465;43.094;12.434;2024-03-23T18:52:38;98257.66;;;13.25;92.38
61573;BME280;47465;43.094;12.434;2024-03-23T18:57:49;98218.81;;;12.99;96.21